createdAt,value
2022-11-24T00:00:39.244Z,13.82
2022-11-24T00:01:43.258Z,13.98
2022-11-24T00:02:48.114Z,11.20
2022-11-24T00:04:03.955Z,12.57
2022-11-24T00:05:08.818Z,11.52
2022-11-24T00:06:15.144Z,12.93
2022-11-24T00:07:20.088Z,11.57
2022-11-24T00:08:24.768Z,12.18
2022-11-24T00:09:30.042Z,10.05
2022-11-24T00:10:35.763Z,13.05
2022-11-24T00:11:40.313Z,12.27
2022-11-24T00:12:44.680Z,13.90
2022-11-24T00:13:49.351Z,13.73
2022-11-24T00:14:53.497Z,14.18
2022-11-24T00:16:18.210Z,12.27
2022-11-24T00:17:21.882Z,13.95
2022-11-24T00:18:25.526Z,11.80
2022-11-24T00:19:30.220Z,14.68
2022-11-24T00:20:34.305Z,15.23
2022-11-24T00:21:40.517Z,14.88
2022-11-24T00:22:44.651Z,13.57
2022-11-24T00:23:49.725Z,14.13
2022-11-24T00:24:54.168Z,15.27
2022-11-24T00:26:03.711Z,16.50
2022-11-24T00:27:07.859Z,17.23
2022-11-24T00:28:10.990Z,16.63
2022-11-24T00:29:14.804Z,16.70
2022-11-24T00:30:18.006Z,16.50
2022-11-24T00:31:28.352Z,16.75
2022-11-24T00:32:32.908Z,18.33
2022-11-24T00:33:37.973Z,15.68
2022-11-24T00:34:42.441Z,18.33
2022-11-24T00:35:45.495Z,19.23
2022-11-24T00:36:49.012Z,16.95
2022-11-24T00:37:55.135Z,18.70
2022-11-24T00:39:02.542Z,20.02
2022-11-24T00:40:06.985Z,16.42
2022-11-24T00:41:10.821Z,15.25
2022-11-24T00:42:15.339Z,16.98
2022-11-24T00:43:21.290Z,16.80
2022-11-24T00:44:24.838Z,18.17
2022-11-24T00:45:28.022Z,15.57
2022-11-24T00:46:31.473Z,18.27
2022-11-24T00:47:35.005Z,18.95
2022-11-24T00:48:38.255Z,16.20
2022-11-24T00:49:42.310Z,19.48
2022-11-24T00:50:46.034Z,20.25
2022-11-24T00:51:49.614Z,19.45
2022-11-24T00:52:52.650Z,18.77
2022-11-24T00:54:26.768Z,19.13
2022-11-24T00:55:33.269Z,19.33
2022-11-24T00:56:38.357Z,17.90
2022-11-24T00:57:42.129Z,17.90
2022-11-24T00:58:45.705Z,17.95
2022-11-24T00:59:48.998Z,18.73
2022-11-24T01:00:53.624Z,18.00
2022-11-24T01:01:56.379Z,18.08
2022-11-24T01:03:00.020Z,17.60
2022-11-24T01:04:05.776Z,18.35
2022-11-24T01:05:10.309Z,18.17
2022-11-24T01:06:17.202Z,22.38
2022-11-24T01:07:20.880Z,21.15
2022-11-24T01:08:24.315Z,20.63
2022-11-24T01:09:27.550Z,21.83
2022-11-24T01:10:31.060Z,25.83
2022-11-24T01:11:55.305Z,20.48
2022-11-24T01:12:59.445Z,18.67
2022-11-24T01:14:03.769Z,20.55
2022-11-24T01:15:07.561Z,19.35
2022-11-24T01:16:29.734Z,15.10
2022-11-24T01:17:34.012Z,16.98
2022-11-24T01:18:37.250Z,15.25
2022-11-24T01:19:40.534Z,16.60
2022-11-24T01:20:43.915Z,16.65
2022-11-24T01:21:47.575Z,18.13
2022-11-24T01:22:51.571Z,16.65
2022-11-24T01:23:56.579Z,16.85
2022-11-24T01:25:00.085Z,19.88
2022-11-24T01:26:07.426Z,16.33
2022-11-24T01:27:12.111Z,19.23
2022-11-24T01:28:17.447Z,17.58
2022-11-24T01:29:21.248Z,16.45
2022-11-24T01:30:25.293Z,16.50
2022-11-24T01:31:29.587Z,16.45
2022-11-24T01:32:38.991Z,16.40
2022-11-24T01:33:42.519Z,17.33
2022-11-24T01:34:45.800Z,16.13
2022-11-24T01:35:49.209Z,16.48
2022-11-24T01:36:52.704Z,18.25
2022-11-24T01:37:56.182Z,18.63
2022-11-24T01:38:59.653Z,16.33
2022-11-24T01:40:03.583Z,14.15
2022-11-24T01:41:12.241Z,15.97
2022-11-24T01:42:15.856Z,16.73
2022-11-24T01:43:23.377Z,22.63
2022-11-24T01:44:29.953Z,15.90
2022-11-24T01:45:41.994Z,15.68
2022-11-24T01:46:49.527Z,15.65
2022-11-24T01:47:52.969Z,19.25
2022-11-24T01:49:15.050Z,20.20
2022-11-24T01:50:20.123Z,17.67
2022-11-24T01:51:28.327Z,16.25
2022-11-24T01:52:39.574Z,17.90
2022-11-24T01:53:46.671Z,15.45
2022-11-24T01:55:14.573Z,15.38
2022-11-24T01:56:18.953Z,19.65
2022-11-24T01:57:49.311Z,16.13
2022-11-24T01:58:55.233Z,18.67
2022-11-24T02:00:18.315Z,17.52
2022-11-24T02:01:23.413Z,17.75
2022-11-24T02:02:30.251Z,19.90
2022-11-24T02:03:39.052Z,20.17
2022-11-24T02:04:43.214Z,21.03
2022-11-24T02:06:02.964Z,16.45
2022-11-24T02:07:08.475Z,18.85
2022-11-24T02:08:35.390Z,19.83
2022-11-24T02:09:48.052Z,19.67
2022-11-24T02:10:51.799Z,18.85
2022-11-24T02:11:56.876Z,19.75
2022-11-24T02:13:03.938Z,20.58
2022-11-24T02:14:11.539Z,19.75
2022-11-24T02:15:20.510Z,17.23
2022-11-24T02:16:25.267Z,16.00
2022-11-24T02:17:29.244Z,16.85
2022-11-24T02:18:34.301Z,16.40
2022-11-24T02:19:55.879Z,17.58
2022-11-24T02:21:01.988Z,14.82
2022-11-24T02:22:09.587Z,15.32
2022-11-24T02:23:16.087Z,17.20
2022-11-24T02:24:34.032Z,15.98
2022-11-24T02:25:47.985Z,18.55
2022-11-24T02:26:53.612Z,17.70
2022-11-24T02:27:59.876Z,19.20
2022-11-24T02:29:05.211Z,17.85
2022-11-24T02:30:10.661Z,16.02
2022-11-24T02:31:15.233Z,14.18
2022-11-24T02:32:21.142Z,17.15
2022-11-24T02:33:26.411Z,15.90
2022-11-24T02:34:31.342Z,17.20
2022-11-24T02:35:36.464Z,17.13
2022-11-24T02:36:40.675Z,18.30
2022-11-24T02:37:45.072Z,15.68
2022-11-24T02:38:49.510Z,15.43
2022-11-24T02:39:54.328Z,15.18
2022-11-24T02:41:00.912Z,16.63
2022-11-24T02:42:09.193Z,14.57
2022-11-24T02:43:20.259Z,14.65
2022-11-24T02:44:29.714Z,16.77
2022-11-24T02:45:33.057Z,15.65
2022-11-24T02:46:36.890Z,13.75
2022-11-24T02:47:40.944Z,13.40
2022-11-24T02:48:44.536Z,15.25
2022-11-24T02:49:47.742Z,14.83
2022-11-24T02:50:51.153Z,13.52
2022-11-24T02:51:55.099Z,14.48
2022-11-24T02:52:58.358Z,15.23
2022-11-24T02:54:02.039Z,14.13
2022-11-24T02:55:06.790Z,16.27
2022-11-24T02:56:11.097Z,13.82
2022-11-24T02:57:14.662Z,12.93
2022-11-24T02:58:18.876Z,15.65
2022-11-24T02:59:23.180Z,13.88
2022-11-24T03:00:26.594Z,21.97
2022-11-24T03:01:30.129Z,15.70
2022-11-24T03:02:34.920Z,13.98
2022-11-24T03:03:39.106Z,11.30
2022-11-24T03:04:42.408Z,12.63
2022-11-24T03:05:46.338Z,13.82
2022-11-24T03:06:51.131Z,11.82
2022-11-24T03:07:54.955Z,13.52
2022-11-24T03:08:58.162Z,16.48
2022-11-24T03:10:01.175Z,12.75
2022-11-24T03:11:05.498Z,13.47
2022-11-24T03:12:08.982Z,13.43
2022-11-24T03:13:13.046Z,16.77
2022-11-24T03:14:16.589Z,18.80
2022-11-24T03:15:20.739Z,16.05
2022-11-24T03:16:25.509Z,18.55
2022-11-24T03:17:30.739Z,15.60
2022-11-24T03:18:34.777Z,15.65
2022-11-24T03:19:38.392Z,15.55
2022-11-24T03:20:42.368Z,17.30
2022-11-24T03:21:45.359Z,14.40
2022-11-24T03:22:48.666Z,14.65
2022-11-24T03:23:54.834Z,16.83
2022-11-24T03:24:59.156Z,14.05
2022-11-24T03:26:13.841Z,15.05
2022-11-24T03:27:18.050Z,12.98
2022-11-24T03:28:21.446Z,15.35
2022-11-24T03:29:25.352Z,13.57
2022-11-24T03:30:29.779Z,16.77
2022-11-24T03:31:35.230Z,12.25
2022-11-24T03:32:39.183Z,13.47
2022-11-24T03:33:43.410Z,14.25
2022-11-24T03:34:48.099Z,13.02
2022-11-24T03:35:51.503Z,13.75
2022-11-24T03:36:54.730Z,10.93
2022-11-24T03:37:58.071Z,13.93
2022-11-24T03:39:02.389Z,11.75
2022-11-24T03:40:07.853Z,14.07
2022-11-24T03:41:11.888Z,13.75
2022-11-24T03:42:15.981Z,12.20
2022-11-24T03:43:20.451Z,14.40
2022-11-24T03:44:24.914Z,14.40
2022-11-24T03:45:45.593Z,12.77
2022-11-24T03:46:50.067Z,13.55
2022-11-24T03:47:54.341Z,16.48
2022-11-24T03:48:59.208Z,18.48
2022-11-24T03:50:04.009Z,15.85
2022-11-24T03:51:09.146Z,13.82
2022-11-24T03:52:14.204Z,14.43
2022-11-24T03:53:18.363Z,14.82
2022-11-24T03:54:22.006Z,12.60
2022-11-24T03:55:26.832Z,11.02
2022-11-24T03:56:30.336Z,11.40
2022-11-24T03:57:34.531Z,14.38
2022-11-24T03:58:38.620Z,12.52
2022-11-24T03:59:43.691Z,11.23
2022-11-24T04:00:49.863Z,13.23
2022-11-24T04:01:53.473Z,12.20
2022-11-24T04:02:56.948Z,14.75
2022-11-24T04:04:00.241Z,12.80
2022-11-24T04:05:04.370Z,13.47
2022-11-24T04:06:08.062Z,13.18
2022-11-24T04:07:13.764Z,13.25
2022-11-24T04:08:20.101Z,12.70
2022-11-24T04:09:24.922Z,14.38
2022-11-24T04:10:30.305Z,12.07
2022-11-24T04:11:53.416Z,15.00
2022-11-24T04:12:58.429Z,14.73
2022-11-24T04:14:02.078Z,14.50
2022-11-24T04:15:06.981Z,17.13
2022-11-24T04:16:10.930Z,15.00
2022-11-24T04:17:14.475Z,11.98
2022-11-24T04:18:18.377Z,12.77
2022-11-24T04:19:21.992Z,14.15
2022-11-24T04:20:26.125Z,15.23
2022-11-24T04:21:29.721Z,14.13
2022-11-24T04:22:33.379Z,14.85
2022-11-24T04:23:37.380Z,19.60
2022-11-24T04:24:40.793Z,19.08
2022-11-24T04:25:44.436Z,16.20
2022-11-24T04:26:49.153Z,19.27
2022-11-24T04:27:54.406Z,16.48
2022-11-24T04:28:57.571Z,16.77
2022-11-24T04:30:01.603Z,18.63
2022-11-24T04:31:06.543Z,20.13
2022-11-24T04:32:10.216Z,18.40
2022-11-24T04:33:14.550Z,14.60
2022-11-24T04:34:17.862Z,14.52
2022-11-24T04:35:21.870Z,14.07
2022-11-24T04:36:25.697Z,12.25
2022-11-24T04:37:29.267Z,13.20
2022-11-24T04:39:22.852Z,12.75
2022-11-24T04:39:58.151Z,13.70
2022-11-24T04:41:05.168Z,13.02
2022-11-24T04:42:09.689Z,13.15
2022-11-24T04:43:14.430Z,13.30
2022-11-24T04:44:18.682Z,14.10
2022-11-24T04:45:23.130Z,12.13
2022-11-24T04:46:26.687Z,12.93
2022-11-24T04:47:31.222Z,11.98
2022-11-24T04:48:34.844Z,17.37
2022-11-24T04:49:38.340Z,12.85
2022-11-24T04:50:42.516Z,13.52
2022-11-24T04:51:47.108Z,18.80
2022-11-24T04:52:51.916Z,13.93
2022-11-24T04:53:56.150Z,12.52
2022-11-24T04:55:00.493Z,19.52
2022-11-24T04:56:07.821Z,12.27
2022-11-24T04:57:17.533Z,12.60
2022-11-24T04:58:21.225Z,12.48
2022-11-24T04:59:24.677Z,15.30
2022-11-24T05:00:28.231Z,13.43
2022-11-24T05:01:32.697Z,12.43
2022-11-24T05:02:38.361Z,15.48
2022-11-24T05:03:42.520Z,11.85
2022-11-24T05:04:47.087Z,13.63
2022-11-24T05:05:51.671Z,13.23
2022-11-24T05:06:56.561Z,11.00
2022-11-24T05:08:02.445Z,15.02
2022-11-24T05:09:07.844Z,14.15
2022-11-24T05:10:30.110Z,15.37
2022-11-24T05:11:34.347Z,16.27
2022-11-24T05:12:38.759Z,16.80
2022-11-24T05:13:42.311Z,13.80
2022-11-24T05:14:46.334Z,14.23
2022-11-24T05:15:50.462Z,16.58
2022-11-24T05:16:55.367Z,15.20
2022-11-24T05:18:01.218Z,15.18
2022-11-24T05:19:06.206Z,18.55
2022-11-24T05:20:11.217Z,16.83
2022-11-24T05:21:16.102Z,15.90
2022-11-24T05:22:21.189Z,13.85
2022-11-24T05:23:25.123Z,12.32
2022-11-24T05:24:29.871Z,13.18
2022-11-24T05:25:35.451Z,12.98
2022-11-24T05:26:40.430Z,12.38
2022-11-24T05:27:45.754Z,12.57
2022-11-24T05:28:49.676Z,14.23
2022-11-24T05:29:53.848Z,12.52
2022-11-24T05:31:05.351Z,13.77
2022-11-24T05:32:09.434Z,18.10
2022-11-24T05:33:20.405Z,13.02
2022-11-24T05:34:23.713Z,15.40
2022-11-24T05:35:27.655Z,14.15
2022-11-24T05:36:50.636Z,15.45
2022-11-24T05:37:54.437Z,13.27
2022-11-24T05:38:59.529Z,14.55
2022-11-24T05:40:04.039Z,15.60
2022-11-24T05:41:10.500Z,16.95
2022-11-24T05:42:33.064Z,23.98
2022-11-24T05:43:37.884Z,13.60
2022-11-24T05:44:43.469Z,17.83
2022-11-24T05:45:47.207Z,15.82
2022-11-24T05:46:52.175Z,16.85
2022-11-24T05:47:56.297Z,20.20
2022-11-24T05:48:59.650Z,16.13
2022-11-24T05:50:05.960Z,14.70
2022-11-24T05:51:10.237Z,12.20
2022-11-24T05:52:15.652Z,12.55
2022-11-24T05:53:21.406Z,16.83
2022-11-24T05:54:26.220Z,17.70
2022-11-24T05:55:30.862Z,14.77
2022-11-24T05:56:35.372Z,17.40
2022-11-24T05:57:38.890Z,16.38
2022-11-24T05:58:44.566Z,16.27
2022-11-24T05:59:49.073Z,13.98
2022-11-24T06:00:52.125Z,15.23
2022-11-24T06:01:57.025Z,14.05
2022-11-24T06:03:02.888Z,16.13
2022-11-24T06:04:07.131Z,18.50
2022-11-24T06:05:12.126Z,18.40
2022-11-24T06:06:17.110Z,19.02
2022-11-24T06:07:21.988Z,22.00
2022-11-24T06:08:31.060Z,18.90
2022-11-24T06:09:40.399Z,18.77
2022-11-24T06:10:45.215Z,16.40
2022-11-24T06:11:50.744Z,15.30
2022-11-24T06:12:54.991Z,19.80
2022-11-24T06:13:59.389Z,20.60
2022-11-24T06:15:04.027Z,19.58
2022-11-24T06:16:10.519Z,16.07
2022-11-24T06:17:15.664Z,18.92
2022-11-24T06:18:19.874Z,13.55
2022-11-24T06:19:24.014Z,15.35
2022-11-24T06:20:32.417Z,15.82
2022-11-24T06:21:36.557Z,15.40
2022-11-24T06:22:40.560Z,14.68
2022-11-24T06:23:45.306Z,15.25
2022-11-24T06:24:55.152Z,16.90
2022-11-24T06:26:03.585Z,15.77
2022-11-24T06:27:08.875Z,14.27
2022-11-24T06:28:14.137Z,20.50
2022-11-24T06:29:18.676Z,14.25
2022-11-24T06:30:22.399Z,18.45
2022-11-24T06:31:26.302Z,19.70
2022-11-24T06:32:30.259Z,15.68
2022-11-24T06:33:39.714Z,19.98
2022-11-24T06:34:44.915Z,21.38
2022-11-24T06:35:49.929Z,17.52
2022-11-24T06:36:54.050Z,21.33
2022-11-24T06:37:58.800Z,21.03
2022-11-24T06:39:04.258Z,18.65
2022-11-24T06:40:12.294Z,27.13
2022-11-24T06:41:18.423Z,34.15
2022-11-24T06:42:22.357Z,26.58
2022-11-24T06:43:29.544Z,32.47
2022-11-24T06:44:34.311Z,36.65
2022-11-24T06:45:38.741Z,33.13
2022-11-24T06:46:42.419Z,33.22
2022-11-24T06:47:46.635Z,34.35
2022-11-24T06:48:53.687Z,38.20
2022-11-24T06:49:57.355Z,35.17
2022-11-24T06:51:08.721Z,32.83
2022-11-24T06:52:13.566Z,28.88
2022-11-24T06:53:17.834Z,37.35
2022-11-24T06:54:23.557Z,32.53
2022-11-24T06:55:27.450Z,30.55
2022-11-24T06:56:31.072Z,36.30
2022-11-24T06:57:36.219Z,34.97
2022-11-24T06:58:45.770Z,36.10
2022-11-24T06:59:51.159Z,37.50
2022-11-24T07:00:56.252Z,34.33
2022-11-24T07:02:01.761Z,30.05
2022-11-24T07:03:06.407Z,37.00
2022-11-24T07:04:11.064Z,49.83
2022-11-24T07:05:15.715Z,49.22
2022-11-24T07:06:20.020Z,47.55
2022-11-24T07:07:24.384Z,44.00
2022-11-24T07:08:30.635Z,38.25
2022-11-24T07:09:33.750Z,28.30
2022-11-24T07:10:36.519Z,23.00
2022-11-24T07:11:39.568Z,13.80
2022-11-24T07:12:42.235Z,16.90
2022-11-24T07:13:46.186Z,14.85
2022-11-24T07:14:48.417Z,14.50
2022-11-24T07:15:52.424Z,14.00
2022-11-24T07:16:56.528Z,12.70
2022-11-24T07:17:59.856Z,13.95
2022-11-24T07:19:03.290Z,16.33
2022-11-24T07:20:07.473Z,18.52
2022-11-24T07:21:10.498Z,17.90
2022-11-24T07:22:14.046Z,23.05
2022-11-24T07:23:18.794Z,31.42
2022-11-24T07:24:22.340Z,56.50
2022-11-24T07:25:26.698Z,69.03
2022-11-24T07:26:29.616Z,70.22
2022-11-24T07:27:32.060Z,70.90
2022-11-24T07:28:37.719Z,64.15
2022-11-24T07:29:41.101Z,68.03
2022-11-24T07:30:45.254Z,59.97
2022-11-24T07:31:49.637Z,57.57
2022-11-24T07:32:58.668Z,52.42
2022-11-24T07:34:01.547Z,51.47
2022-11-24T07:35:04.301Z,50.13
2022-11-24T07:36:08.201Z,53.55
2022-11-24T07:37:10.941Z,57.97
2022-11-24T07:38:13.405Z,53.92
2022-11-24T07:39:15.933Z,60.75
2022-11-24T07:40:19.323Z,50.83
2022-11-24T07:41:22.285Z,51.67
2022-11-24T07:42:25.879Z,45.57
2022-11-24T07:43:31.453Z,49.42
2022-11-24T07:44:35.930Z,48.33
2022-11-24T07:45:39.426Z,51.83
2022-11-24T07:46:42.957Z,49.38
2022-11-24T07:47:45.674Z,52.80
2022-11-24T07:48:48.703Z,47.35
2022-11-24T07:49:52.362Z,48.47
2022-11-24T07:50:56.281Z,45.65
2022-11-24T07:52:04.533Z,39.10
2022-11-24T07:53:09.759Z,48.43
2022-11-24T07:54:14.258Z,49.43
2022-11-24T07:55:18.314Z,54.05
2022-11-24T07:56:22.605Z,55.22
2022-11-24T07:57:25.828Z,48.85
2022-11-24T07:58:34.104Z,46.75
2022-11-24T07:59:36.508Z,54.17
2022-11-24T08:00:39.306Z,50.95
2022-11-24T08:01:43.701Z,49.58
2022-11-24T08:02:47.533Z,49.45
2022-11-24T08:03:50.147Z,47.53
2022-11-24T08:04:52.971Z,44.57
2022-11-24T08:07:23.729Z,45.42
2022-11-24T08:08:27.668Z,47.47
2022-11-24T08:09:31.803Z,46.47
2022-11-24T08:10:36.214Z,41.58
2022-11-24T08:11:39.424Z,41.60
2022-11-24T08:12:43.797Z,35.47
2022-11-24T08:13:47.983Z,29.90
2022-11-24T08:14:51.418Z,30.92
2022-11-24T08:15:54.020Z,28.53
2022-11-24T08:17:00.512Z,31.58
2022-11-24T08:18:03.965Z,28.17
2022-11-24T08:19:06.654Z,33.00
2022-11-24T08:20:09.527Z,26.98
2022-11-24T08:21:15.452Z,24.40
2022-11-24T08:22:18.176Z,24.27
2022-11-24T08:23:20.583Z,26.17
2022-11-24T08:24:23.916Z,24.33
2022-11-24T08:25:33.981Z,25.35
2022-11-24T08:26:37.174Z,32.83
2022-11-24T08:27:40.597Z,22.38
2022-11-24T08:28:43.799Z,20.13
2022-11-24T08:29:46.486Z,23.08
2022-11-24T08:30:48.996Z,22.30
2022-11-24T08:31:53.288Z,18.02
2022-11-24T08:32:58.816Z,17.90
2022-11-24T08:34:02.621Z,16.80
2022-11-24T08:35:14.021Z,23.73
2022-11-24T08:36:19.598Z,21.02
2022-11-24T08:37:24.310Z,17.57
2022-11-24T08:38:28.497Z,18.83
2022-11-24T08:39:31.330Z,22.83
2022-11-24T08:40:34.593Z,20.08
2022-11-24T08:41:37.144Z,21.40
2022-11-24T08:42:40.452Z,16.40
2022-11-24T08:43:43.446Z,17.60
2022-11-24T08:44:46.105Z,17.70
2022-11-24T08:45:49.513Z,17.50
2022-11-24T08:46:55.832Z,22.20
2022-11-24T08:48:00.746Z,20.47
2022-11-24T08:49:05.621Z,18.45
2022-11-24T08:50:09.065Z,18.60
2022-11-24T08:51:15.476Z,27.48
2022-11-24T08:52:18.170Z,20.83
2022-11-24T08:53:22.054Z,22.10
2022-11-24T08:54:26.673Z,17.95
2022-11-24T08:55:29.397Z,17.73
2022-11-24T08:56:34.926Z,16.30
2022-11-24T08:57:40.095Z,21.77
2022-11-24T08:58:43.474Z,16.50
2022-11-24T08:59:46.810Z,14.50
2022-11-24T09:00:50.159Z,16.65
2022-11-24T09:01:53.434Z,14.52
2022-11-24T09:02:58.380Z,16.88
2022-11-24T09:04:01.185Z,19.60
2022-11-24T09:05:07.241Z,17.33
2022-11-24T09:06:25.861Z,18.52
2022-11-24T09:07:29.181Z,18.95
2022-11-24T09:08:32.814Z,16.42
2022-11-24T09:09:37.604Z,19.97
2022-11-24T09:10:40.808Z,17.67
2022-11-24T09:11:45.484Z,15.68
2022-11-24T09:12:49.437Z,15.25
2022-11-24T09:13:54.015Z,16.08
2022-11-24T09:14:59.333Z,16.73
2022-11-24T09:16:09.965Z,16.60
2022-11-24T09:17:13.453Z,15.18
2022-11-24T09:18:17.233Z,17.70
2022-11-24T09:19:20.574Z,16.58
2022-11-24T09:20:25.191Z,18.93
2022-11-24T09:21:29.208Z,17.88
2022-11-24T09:22:32.256Z,18.38
2022-11-24T09:23:34.921Z,21.92
